sensor_id;sensor_type;location;lat;lon;timestamp;P1;durP1;ratioP1;P2;durP2;ratioP2
70459;SDS011;57920;54.796;9.430;2022-07-15T00:01:20;5.50;;;1.30;;
70459;SDS011;57920;54.796;9.430;2022-07-15T00:03:45;1.53;;;1.00;;
70459;SDS011;57920;54.796;9.430;2022-07-15T00:06:11;3.93;;;1.03;;
70459;SDS011;57920;54.796;9.430;2022-07-15T00:08:36;2.10;;;0.87;;
70459;SDS011;57920;54.796;9.430;2022-07-15T00:11:02;2.57;;;0.93;;
70459;SDS011;57920;54.796;9.430;2022-07-15T00:13:27;1.43;;;0.90;;
70459;SDS011;57920;54.796;9.430;2022-07-15T00:15:53;3.63;;;1.07;;
70459;SDS011;57920;54.796;9.430;2022-07-15T00:18:18;3.70;;;1.07;;
70459;SDS011;57920;54.796;9.430;2022-07-15T00:20:44;2.80;;;0.60;;
70459;SDS011;57920;54.796;9.430;2022-07-15T00:23:10;2.30;;;0.90;;
70459;SDS011;57920;54.796;9.430;2022-07-15T00:25:35;2.33;;;1.07;;
70459;SDS011;57920;54.796;9.430;2022-07-15T00:28:02;2.93;;;0.80;;
70459;SDS011;57920;54.796;9.430;2022-07-15T00:30:30;2.07;;;0.93;;
70459;SDS011;57920;54.796;9.430;2022-07-15T00:32:57;1.87;;;1.03;;
70459;SDS011;57920;54.796;9.430;2022-07-15T00:35:23;2.27;;;0.80;;
70459;SDS011;57920;54.796;9.430;2022-07-15T00:37:48;1.87;;;0.80;;
70459;SDS011;57920;54.796;9.430;2022-07-15T00:40:14;2.87;;;0.90;;
70459;SDS011;57920;54.796;9.430;2022-07-15T00:42:41;3.93;;;0.90;;
70459;SDS011;57920;54.796;9.430;2022-07-15T00:45:16;1.90;;;0.97;;
70459;SDS011;57920;54.796;9.430;2022-07-15T00:47:44;1.83;;;0.87;;
70459;SDS011;57920;54.796;9.430;2022-07-15T00:50:11;2.10;;;1.00;;
70459;SDS011;57920;54.796;9.430;2022-07-15T00:52:39;2.13;;;0.93;;
70459;SDS011;57920;54.796;9.430;2022-07-15T00:55:09;2.00;;;0.87;;
70459;SDS011;57920;54.796;9.430;2022-07-15T00:57:37;0.97;;;0.63;;
70459;SDS011;57920;54.796;9.430;2022-07-15T01:00:07;3.77;;;0.90;;
70459;SDS011;57920;54.796;9.430;2022-07-15T01:02:36;3.93;;;1.20;;
70459;SDS011;57920;54.796;9.430;2022-07-15T01:05:03;2.53;;;1.00;;
70459;SDS011;57920;54.796;9.430;2022-07-15T01:07:30;2.80;;;0.80;;
70459;SDS011;57920;54.796;9.430;2022-07-15T01:09:56;1.60;;;0.67;;
70459;SDS011;57920;54.796;9.430;2022-07-15T01:12:22;1.97;;;0.70;;
70459;SDS011;57920;54.796;9.430;2022-07-15T01:14:48;3.27;;;0.97;;
70459;SDS011;57920;54.796;9.430;2022-07-15T01:20:40;2.00;;;0.60;;
70459;SDS011;57920;54.796;9.430;2022-07-15T01:23:06;1.83;;;0.87;;
70459;SDS011;57920;54.796;9.430;2022-07-15T01:25:32;2.07;;;0.67;;
70459;SDS011;57920;54.796;9.430;2022-07-15T01:27:58;0.90;;;0.53;;
70459;SDS011;57920;54.796;9.430;2022-07-15T01:30:24;2.17;;;0.80;;
70459;SDS011;57920;54.796;9.430;2022-07-15T01:32:50;1.63;;;1.00;;
70459;SDS011;57920;54.796;9.430;2022-07-15T01:35:16;4.60;;;1.30;;
70459;SDS011;57920;54.796;9.430;2022-07-15T01:37:42;3.87;;;1.00;;
70459;SDS011;57920;54.796;9.430;2022-07-15T01:40:09;1.43;;;0.87;;
70459;SDS011;57920;54.796;9.430;2022-07-15T01:42:35;3.13;;;0.83;;
70459;SDS011;57920;54.796;9.430;2022-07-15T01:45:02;2.50;;;0.97;;
70459;SDS011;57920;54.796;9.430;2022-07-15T01:51:11;1.67;;;0.80;;
70459;SDS011;57920;54.796;9.430;2022-07-15T01:53:36;3.73;;;1.33;;
70459;SDS011;57920;54.796;9.430;2022-07-15T01:56:02;2.63;;;0.93;;
70459;SDS011;57920;54.796;9.430;2022-07-15T01:58:28;1.67;;;0.50;;
70459;SDS011;57920;54.796;9.430;2022-07-15T02:00:54;2.10;;;1.20;;
70459;SDS011;57920;54.796;9.430;2022-07-15T02:03:20;2.40;;;0.67;;
70459;SDS011;57920;54.796;9.430;2022-07-15T02:05:46;3.57;;;0.87;;
70459;SDS011;57920;54.796;9.430;2022-07-15T02:08:11;1.40;;;0.60;;
70459;SDS011;57920;54.796;9.430;2022-07-15T02:10:37;2.37;;;0.90;;
70459;SDS011;57920;54.796;9.430;2022-07-15T02:13:09;1.33;;;0.97;;
70459;SDS011;57920;54.796;9.430;2022-07-15T02:15:36;2.50;;;0.80;;
70459;SDS011;57920;54.796;9.430;2022-07-15T02:18:11;2.47;;;0.97;;
70459;SDS011;57920;54.796;9.430;2022-07-15T02:20:37;2.87;;;1.00;;
70459;SDS011;57920;54.796;9.430;2022-07-15T02:23:02;1.10;;;0.60;;
70459;SDS011;57920;54.796;9.430;2022-07-15T02:25:29;2.67;;;0.90;;
70459;SDS011;57920;54.796;9.430;2022-07-15T02:27:57;1.97;;;0.80;;
70459;SDS011;57920;54.796;9.430;2022-07-15T02:30:28;2.73;;;1.00;;
70459;SDS011;57920;54.796;9.430;2022-07-15T02:32:56;1.83;;;0.87;;
70459;SDS011;57920;54.796;9.430;2022-07-15T02:35:22;1.93;;;0.70;;
70459;SDS011;57920;54.796;9.430;2022-07-15T02:37:48;2.23;;;1.00;;
70459;SDS011;57920;54.796;9.430;2022-07-15T02:40:14;1.50;;;0.93;;
70459;SDS011;57920;54.796;9.430;2022-07-15T02:42:39;2.10;;;1.07;;
70459;SDS011;57920;54.796;9.430;2022-07-15T02:45:11;1.13;;;0.50;;
70459;SDS011;57920;54.796;9.430;2022-07-15T02:47:39;3.47;;;0.70;;
70459;SDS011;57920;54.796;9.430;2022-07-15T02:50:05;2.27;;;1.07;;
70459;SDS011;57920;54.796;9.430;2022-07-15T02:52:31;2.47;;;0.60;;
70459;SDS011;57920;54.796;9.430;2022-07-15T02:54:56;0.93;;;0.70;;
70459;SDS011;57920;54.796;9.430;2022-07-15T02:57:22;2.73;;;0.80;;
70459;SDS011;57920;54.796;9.430;2022-07-15T02:59:47;1.87;;;0.70;;
70459;SDS011;57920;54.796;9.430;2022-07-15T03:02:13;1.73;;;0.40;;
70459;SDS011;57920;54.796;9.430;2022-07-15T03:04:38;2.60;;;1.13;;
70459;SDS011;57920;54.796;9.430;2022-07-15T03:07:04;1.37;;;0.90;;
70459;SDS011;57920;54.796;9.430;2022-07-15T03:09:30;2.70;;;0.60;;
70459;SDS011;57920;54.796;9.430;2022-07-15T03:11:55;2.60;;;0.70;;
70459;SDS011;57920;54.796;9.430;2022-07-15T03:14:21;1.23;;;0.63;;
70459;SDS011;57920;54.796;9.430;2022-07-15T03:19:40;0.80;;;0.40;;
70459;SDS011;57920;54.796;9.430;2022-07-15T03:22:06;4.33;;;1.17;;
70459;SDS011;57920;54.796;9.430;2022-07-15T03:24:32;1.87;;;0.70;;
70459;SDS011;57920;54.796;9.430;2022-07-15T03:26:58;1.50;;;0.77;;
70459;SDS011;57920;54.796;9.430;2022-07-15T03:29:24;1.73;;;0.90;;
70459;SDS011;57920;54.796;9.430;2022-07-15T03:31:50;1.70;;;0.90;;
70459;SDS011;57920;54.796;9.430;2022-07-15T03:34:15;1.97;;;0.83;;
70459;SDS011;57920;54.796;9.430;2022-07-15T03:36:42;2.20;;;0.77;;
70459;SDS011;57920;54.796;9.430;2022-07-15T03:39:08;2.17;;;0.63;;
70459;SDS011;57920;54.796;9.430;2022-07-15T03:41:34;1.93;;;0.80;;
70459;SDS011;57920;54.796;9.430;2022-07-15T03:44:00;2.63;;;0.83;;
70459;SDS011;57920;54.796;9.430;2022-07-15T03:49:48;1.83;;;0.50;;
70459;SDS011;57920;54.796;9.430;2022-07-15T03:52:13;1.43;;;0.73;;
70459;SDS011;57920;54.796;9.430;2022-07-15T03:54:39;3.17;;;0.80;;
70459;SDS011;57920;54.796;9.430;2022-07-15T03:57:05;1.10;;;0.57;;
70459;SDS011;57920;54.796;9.430;2022-07-15T03:59:30;1.73;;;1.03;;
70459;SDS011;57920;54.796;9.430;2022-07-15T04:01:56;1.53;;;0.70;;
70459;SDS011;57920;54.796;9.430;2022-07-15T04:04:21;0.70;;;0.60;;
70459;SDS011;57920;54.796;9.430;2022-07-15T04:06:47;3.40;;;0.93;;
70459;SDS011;57920;54.796;9.430;2022-07-15T04:09:12;3.53;;;0.87;;
70459;SDS011;57920;54.796;9.430;2022-07-15T04:11:38;0.87;;;0.63;;
70459;SDS011;57920;54.796;9.430;2022-07-15T04:14:07;3.40;;;0.90;;
70459;SDS011;57920;54.796;9.430;2022-07-15T04:16:33;1.90;;;0.70;;
70459;SDS011;57920;54.796;9.430;2022-07-15T04:18:59;1.87;;;1.00;;
70459;SDS011;57920;54.796;9.430;2022-07-15T04:21:24;1.63;;;0.80;;
70459;SDS011;57920;54.796;9.430;2022-07-15T04:23:50;1.77;;;0.97;;
70459;SDS011;57920;54.796;9.430;2022-07-15T04:26:16;2.30;;;0.87;;
70459;SDS011;57920;54.796;9.430;2022-07-15T04:28:41;1.60;;;0.80;;
70459;SDS011;57920;54.796;9.430;2022-07-15T04:31:07;2.37;;;0.87;;
70459;SDS011;57920;54.796;9.430;2022-07-15T04:33:32;1.83;;;0.70;;
70459;SDS011;57920;54.796;9.430;2022-07-15T04:35:58;0.90;;;0.70;;
70459;SDS011;57920;54.796;9.430;2022-07-15T04:38:23;3.03;;;0.73;;
70459;SDS011;57920;54.796;9.430;2022-07-15T04:40:49;2.67;;;1.10;;
70459;SDS011;57920;54.796;9.430;2022-07-15T04:43:15;2.20;;;0.83;;
70459;SDS011;57920;54.796;9.430;2022-07-15T04:45:40;3.37;;;0.83;;
70459;SDS011;57920;54.796;9.430;2022-07-15T04:48:06;3.60;;;0.80;;
70459;SDS011;57920;54.796;9.430;2022-07-15T04:50:50;2.37;;;0.80;;
70459;SDS011;57920;54.796;9.430;2022-07-15T04:53:19;3.13;;;0.80;;
70459;SDS011;57920;54.796;9.430;2022-07-15T04:55:46;1.23;;;0.77;;
70459;SDS011;57920;54.796;9.430;2022-07-15T04:58:12;2.03;;;0.73;;
70459;SDS011;57920;54.796;9.430;2022-07-15T05:00:39;2.37;;;0.63;;
70459;SDS011;57920;54.796;9.430;2022-07-15T05:03:06;2.10;;;0.57;;
70459;SDS011;57920;54.796;9.430;2022-07-15T05:05:31;2.47;;;0.80;;
70459;SDS011;57920;54.796;9.430;2022-07-15T05:07:58;1.30;;;0.80;;
70459;SDS011;57920;54.796;9.430;2022-07-15T05:10:24;1.40;;;0.47;;
70459;SDS011;57920;54.796;9.430;2022-07-15T05:12:49;1.93;;;0.80;;
70459;SDS011;57920;54.796;9.430;2022-07-15T05:15:15;1.57;;;0.50;;
70459;SDS011;57920;54.796;9.430;2022-07-15T05:20:37;0.80;;;0.40;;
70459;SDS011;57920;54.796;9.430;2022-07-15T05:23:02;2.40;;;0.80;;
70459;SDS011;57920;54.796;9.430;2022-07-15T05:25:28;2.53;;;0.73;;
70459;SDS011;57920;54.796;9.430;2022-07-15T05:27:54;2.30;;;0.67;;
70459;SDS011;57920;54.796;9.430;2022-07-15T05:30:19;1.90;;;0.70;;
70459;SDS011;57920;54.796;9.430;2022-07-15T05:32:45;1.37;;;0.70;;
70459;SDS011;57920;54.796;9.430;2022-07-15T05:35:14;0.80;;;0.43;;
70459;SDS011;57920;54.796;9.430;2022-07-15T05:37:40;1.40;;;0.33;;
70459;SDS011;57920;54.796;9.430;2022-07-15T05:40:06;1.80;;;0.80;;
70459;SDS011;57920;54.796;9.430;2022-07-15T05:42:33;1.37;;;0.60;;
70459;SDS011;57920;54.796;9.430;2022-07-15T05:44:59;1.20;;;0.60;;
70459;SDS011;57920;54.796;9.430;2022-07-15T05:50:13;1.20;;;0.57;;
70459;SDS011;57920;54.796;9.430;2022-07-15T05:52:39;1.70;;;0.87;;
70459;SDS011;57920;54.796;9.430;2022-07-15T05:55:04;1.10;;;0.60;;
70459;SDS011;57920;54.796;9.430;2022-07-15T05:57:31;2.33;;;0.83;;
70459;SDS011;57920;54.796;9.430;2022-07-15T05:59:57;1.23;;;0.53;;
70459;SDS011;57920;54.796;9.430;2022-07-15T06:02:23;1.40;;;0.80;;
70459;SDS011;57920;54.796;9.430;2022-07-15T06:04:48;1.77;;;0.40;;
70459;SDS011;57920;54.796;9.430;2022-07-15T06:07:14;2.63;;;0.70;;
70459;SDS011;57920;54.796;9.430;2022-07-15T06:09:39;5.10;;;0.80;;
70459;SDS011;57920;54.796;9.430;2022-07-15T06:12:05;2.97;;;1.10;;
70459;SDS011;57920;54.796;9.430;2022-07-15T06:14:31;3.53;;;0.93;;
70459;SDS011;57920;54.796;9.430;2022-07-15T06:16:56;3.30;;;1.03;;
70459;SDS011;57920;54.796;9.430;2022-07-15T06:19:22;4.23;;;1.33;;
70459;SDS011;57920;54.796;9.430;2022-07-15T06:21:47;7.57;;;1.13;;
70459;SDS011;57920;54.796;9.430;2022-07-15T06:24:13;2.50;;;0.70;;
70459;SDS011;57920;54.796;9.430;2022-07-15T06:26:39;1.87;;;1.10;;
70459;SDS011;57920;54.796;9.430;2022-07-15T06:29:04;3.23;;;0.83;;
70459;SDS011;57920;54.796;9.430;2022-07-15T06:31:30;5.50;;;1.50;;
70459;SDS011;57920;54.796;9.430;2022-07-15T06:33:56;3.17;;;0.80;;
70459;SDS011;57920;54.796;9.430;2022-07-15T06:36:24;4.37;;;1.10;;
70459;SDS011;57920;54.796;9.430;2022-07-15T06:38:50;1.87;;;1.17;;
70459;SDS011;57920;54.796;9.430;2022-07-15T06:41:16;5.90;;;1.10;;
70459;SDS011;57920;54.796;9.430;2022-07-15T06:43:43;2.93;;;1.10;;
70459;SDS011;57920;54.796;9.430;2022-07-15T06:49:31;48.40;;;8.50;;
70459;SDS011;57920;54.796;9.430;2022-07-15T06:51:58;226.40;;;35.00;;
70459;SDS011;57920;54.796;9.430;2022-07-15T06:54:24;457.63;;;62.87;;
70459;SDS011;57920;54.796;9.430;2022-07-15T06:56:49;440.47;;;64.10;;
70459;SDS011;57920;54.796;9.430;2022-07-15T06:59:15;998.83;;;159.00;;
70459;SDS011;57920;54.796;9.430;2022-07-15T07:01:41;724.83;;;116.43;;
70459;SDS011;57920;54.796;9.430;2022-07-15T07:04:06;772.33;;;119.07;;
70459;SDS011;57920;54.796;9.430;2022-07-15T07:06:32;763.57;;;121.27;;
70459;SDS011;57920;54.796;9.430;2022-07-15T07:08:58;811.30;;;120.23;;
70459;SDS011;57920;54.796;9.430;2022-07-15T07:11:24;594.63;;;100.57;;
70459;SDS011;57920;54.796;9.430;2022-07-15T07:13:50;631.53;;;103.17;;
70459;SDS011;57920;54.796;9.430;2022-07-15T07:19:18;428.87;;;68.47;;
70459;SDS011;57920;54.796;9.430;2022-07-15T07:21:44;351.03;;;61.20;;
70459;SDS011;57920;54.796;9.430;2022-07-15T07:24:10;329.43;;;60.63;;
70459;SDS011;57920;54.796;9.430;2022-07-15T07:26:35;276.07;;;47.20;;
70459;SDS011;57920;54.796;9.430;2022-07-15T07:29:02;236.87;;;42.40;;
70459;SDS011;57920;54.796;9.430;2022-07-15T07:31:28;209.50;;;34.73;;
70459;SDS011;57920;54.796;9.430;2022-07-15T07:33:54;216.57;;;37.47;;
70459;SDS011;57920;54.796;9.430;2022-07-15T07:36:20;185.37;;;32.57;;
70459;SDS011;57920;54.796;9.430;2022-07-15T07:38:46;113.80;;;24.00;;
70459;SDS011;57920;54.796;9.430;2022-07-15T07:41:11;133.90;;;23.37;;
70459;SDS011;57920;54.796;9.430;2022-07-15T07:43:37;117.43;;;24.30;;
70459;SDS011;57920;54.796;9.430;2022-07-15T07:49:25;75.80;;;16.07;;
70459;SDS011;57920;54.796;9.430;2022-07-15T07:51:51;63.23;;;18.43;;
70459;SDS011;57920;54.796;9.430;2022-07-15T07:54:17;55.83;;;14.30;;
70459;SDS011;57920;54.796;9.430;2022-07-15T07:56:42;54.33;;;13.47;;
70459;SDS011;57920;54.796;9.430;2022-07-15T07:59:10;46.43;;;12.07;;
70459;SDS011;57920;54.796;9.430;2022-07-15T08:01:36;36.83;;;9.73;;
70459;SDS011;57920;54.796;9.430;2022-07-15T08:04:01;27.37;;;8.07;;
70459;SDS011;57920;54.796;9.430;2022-07-15T08:06:27;27.30;;;6.23;;
70459;SDS011;57920;54.796;9.430;2022-07-15T08:08:53;29.30;;;7.90;;
70459;SDS011;57920;54.796;9.430;2022-07-15T08:11:18;24.33;;;6.37;;
70459;SDS011;57920;54.796;9.430;2022-07-15T08:13:45;19.27;;;5.30;;
70459;SDS011;57920;54.796;9.430;2022-07-15T08:16:29;24.13;;;5.97;;
70459;SDS011;57920;54.796;9.430;2022-07-15T08:18:55;21.37;;;5.10;;
70459;SDS011;57920;54.796;9.430;2022-07-15T08:21:21;16.97;;;4.67;;
70459;SDS011;57920;54.796;9.430;2022-07-15T08:23:46;14.53;;;4.23;;
70459;SDS011;57920;54.796;9.430;2022-07-15T08:26:12;12.83;;;3.83;;
70459;SDS011;57920;54.796;9.430;2022-07-15T08:28:43;15.53;;;3.67;;
70459;SDS011;57920;54.796;9.430;2022-07-15T08:31:09;15.67;;;5.10;;
70459;SDS011;57920;54.796;9.430;2022-07-15T08:33:34;16.60;;;4.07;;
70459;SDS011;57920;54.796;9.430;2022-07-15T08:36:00;12.23;;;3.93;;
70459;SDS011;57920;54.796;9.430;2022-07-15T08:38:25;14.03;;;4.30;;
70459;SDS011;57920;54.796;9.430;2022-07-15T08:40:51;13.83;;;4.07;;
70459;SDS011;57920;54.796;9.430;2022-07-15T08:43:16;17.83;;;4.40;;
70459;SDS011;57920;54.796;9.430;2022-07-15T08:45:42;24.23;;;4.43;;
70459;SDS011;57920;54.796;9.430;2022-07-15T08:48:08;7.77;;;2.67;;
70459;SDS011;57920;54.796;9.430;2022-07-15T08:50:35;14.10;;;2.83;;
70459;SDS011;57920;54.796;9.430;2022-07-15T08:53:01;11.20;;;3.07;;
70459;SDS011;57920;54.796;9.430;2022-07-15T08:55:27;11.13;;;3.67;;
70459;SDS011;57920;54.796;9.430;2022-07-15T08:57:53;10.37;;;2.70;;
70459;SDS011;57920;54.796;9.430;2022-07-15T09:00:20;14.07;;;2.70;;
70459;SDS011;57920;54.796;9.430;2022-07-15T09:02:53;8.93;;;2.53;;
70459;SDS011;57920;54.796;9.430;2022-07-15T09:05:33;5.77;;;2.43;;
70459;SDS011;57920;54.796;9.430;2022-07-15T09:15:55;6.80;;;2.20;;
70459;SDS011;57920;54.796;9.430;2022-07-15T09:18:24;3.60;;;1.27;;
70459;SDS011;57920;54.796;9.430;2022-07-15T09:20:52;6.27;;;1.47;;
70459;SDS011;57920;54.796;9.430;2022-07-15T09:23:21;6.17;;;1.50;;
70459;SDS011;57920;54.796;9.430;2022-07-15T09:25:54;4.17;;;1.60;;
70459;SDS011;57920;54.796;9.430;2022-07-15T09:28:21;2.23;;;1.33;;
70459;SDS011;57920;54.796;9.430;2022-07-15T09:30:59;3.87;;;1.70;;
70459;SDS011;57920;54.796;9.430;2022-07-15T09:33:43;4.37;;;1.20;;
70459;SDS011;57920;54.796;9.430;2022-07-15T09:36:16;1.67;;;0.97;;
70459;SDS011;57920;54.796;9.430;2022-07-15T09:38:50;4.73;;;1.47;;
70459;SDS011;57920;54.796;9.430;2022-07-15T09:41:28;8.33;;;2.53;;
70459;SDS011;57920;54.796;9.430;2022-07-15T09:50:07;30.90;;;6.10;;
70459;SDS011;57920;54.796;9.430;2022-07-15T09:52:44;32.37;;;5.67;;
70459;SDS011;57920;54.796;9.430;2022-07-15T09:55:12;55.60;;;10.97;;
70459;SDS011;57920;54.796;9.430;2022-07-15T09:57:38;76.80;;;12.33;;
70459;SDS011;57920;54.796;9.430;2022-07-15T10:00:04;100.37;;;15.67;;
70459;SDS011;57920;54.796;9.430;2022-07-15T10:02:30;173.33;;;23.90;;
70459;SDS011;57920;54.796;9.430;2022-07-15T10:04:56;144.90;;;23.13;;
70459;SDS011;57920;54.796;9.430;2022-07-15T10:07:22;85.47;;;15.43;;
70459;SDS011;57920;54.796;9.430;2022-07-15T10:09:49;138.47;;;20.87;;
70459;SDS011;57920;54.796;9.430;2022-07-15T10:12:19;98.80;;;15.57;;
70459;SDS011;57920;54.796;9.430;2022-07-15T10:15:04;70.67;;;12.57;;
70459;SDS011;57920;54.796;9.430;2022-07-15T10:17:51;66.47;;;12.23;;
70459;SDS011;57920;54.796;9.430;2022-07-15T10:31:30;178.57;;;23.27;;
70459;SDS011;57920;54.796;9.430;2022-07-15T10:39:11;41.20;;;6.17;;
70459;SDS011;57920;54.796;9.430;2022-07-15T10:41:54;111.80;;;16.40;;
70459;SDS011;57920;54.796;9.430;2022-07-15T10:44:30;89.70;;;12.47;;
70459;SDS011;57920;54.796;9.430;2022-07-15T10:47:15;65.63;;;9.67;;
70459;SDS011;57920;54.796;9.430;2022-07-15T10:49:45;76.20;;;10.03;;
70459;SDS011;57920;54.796;9.430;2022-07-15T10:54:45;56.30;;;8.63;;
70459;SDS011;57920;54.796;9.430;2022-07-15T10:57:21;47.13;;;7.60;;
70459;SDS011;57920;54.796;9.430;2022-07-15T11:00:05;35.30;;;6.33;;
70459;SDS011;57920;54.796;9.430;2022-07-15T11:03:03;32.87;;;7.47;;
70459;SDS011;57920;54.796;9.430;2022-07-15T11:05:29;30.67;;;5.47;;
70459;SDS011;57920;54.796;9.430;2022-07-15T11:07:54;22.97;;;4.07;;
70459;SDS011;57920;54.796;9.430;2022-07-15T11:10:21;16.43;;;4.57;;
70459;SDS011;57920;54.796;9.430;2022-07-15T11:15:16;20.97;;;3.23;;
70459;SDS011;57920;54.796;9.430;2022-07-15T11:17:44;14.73;;;3.33;;
70459;SDS011;57920;54.796;9.430;2022-07-15T11:20:20;18.60;;;3.10;;
70459;SDS011;57920;54.796;9.430;2022-07-15T11:22:49;12.23;;;3.07;;
70459;SDS011;57920;54.796;9.430;2022-07-15T11:25:24;181.00;;;116.47;;
70459;SDS011;57920;54.796;9.430;2022-07-15T11:33:18;171.03;;;108.70;;
70459;SDS011;57920;54.796;9.430;2022-07-15T11:35:47;126.90;;;77.87;;
70459;SDS011;57920;54.796;9.430;2022-07-15T11:38:19;109.13;;;69.57;;
70459;SDS011;57920;54.796;9.430;2022-07-15T11:40:54;83.67;;;56.40;;
70459;SDS011;57920;54.796;9.430;2022-07-15T11:43:44;100.90;;;57.80;;
70459;SDS011;57920;54.796;9.430;2022-07-15T11:46:29;82.10;;;53.30;;
70459;SDS011;57920;54.796;9.430;2022-07-15T11:48:57;120.90;;;69.03;;
70459;SDS011;57920;54.796;9.430;2022-07-15T11:51:26;65.23;;;38.30;;
70459;SDS011;57920;54.796;9.430;2022-07-15T11:53:54;99.97;;;54.63;;
70459;SDS011;57920;54.796;9.430;2022-07-15T11:56:21;91.63;;;36.17;;
70459;SDS011;57920;54.796;9.430;2022-07-15T11:58:51;91.73;;;41.07;;
70459;SDS011;57920;54.796;9.430;2022-07-15T12:01:23;86.53;;;40.57;;
70459;SDS011;57920;54.796;9.430;2022-07-15T12:03:53;92.47;;;37.43;;
70459;SDS011;57920;54.796;9.430;2022-07-15T12:06:28;66.83;;;34.53;;
70459;SDS011;57920;54.796;9.430;2022-07-15T12:08:56;52.57;;;25.43;;
70459;SDS011;57920;54.796;9.430;2022-07-15T12:13:57;59.77;;;28.77;;
70459;SDS011;57920;54.796;9.430;2022-07-15T12:19:18;53.47;;;24.43;;
70459;SDS011;57920;54.796;9.430;2022-07-15T12:21:49;43.37;;;18.20;;
70459;SDS011;57920;54.796;9.430;2022-07-15T12:24:17;43.13;;;19.77;;
70459;SDS011;57920;54.796;9.430;2022-07-15T12:29:16;36.60;;;17.43;;
70459;SDS011;57920;54.796;9.430;2022-07-15T12:31:50;27.93;;;16.37;;
70459;SDS011;57920;54.796;9.430;2022-07-15T12:34:20;25.10;;;13.00;;
70459;SDS011;57920;54.796;9.430;2022-07-15T12:36:57;28.03;;;10.27;;
70459;SDS011;57920;54.796;9.430;2022-07-15T12:39:23;27.27;;;10.83;;
70459;SDS011;57920;54.796;9.430;2022-07-15T12:42:00;17.63;;;8.93;;
70459;SDS011;57920;54.796;9.430;2022-07-15T12:44:28;11.03;;;7.70;;
70459;SDS011;57920;54.796;9.430;2022-07-15T12:47:03;13.73;;;9.00;;
70459;SDS011;57920;54.796;9.430;2022-07-15T12:50:03;13.80;;;8.20;;
70459;SDS011;57920;54.796;9.430;2022-07-15T12:52:31;9.77;;;5.70;;
70459;SDS011;57920;54.796;9.430;2022-07-15T12:54:58;9.33;;;5.90;;
70459;SDS011;57920;54.796;9.430;2022-07-15T12:57:35;10.40;;;5.50;;
70459;SDS011;57920;54.796;9.430;2022-07-15T13:00:06;8.47;;;5.47;;
70459;SDS011;57920;54.796;9.430;2022-07-15T13:05:25;11.73;;;4.13;;
70459;SDS011;57920;54.796;9.430;2022-07-15T13:07:52;9.43;;;4.13;;
70459;SDS011;57920;54.796;9.430;2022-07-15T13:10:18;3.87;;;3.20;;
70459;SDS011;57920;54.796;9.430;2022-07-15T13:12:44;7.07;;;3.50;;
70459;SDS011;57920;54.796;9.430;2022-07-15T13:15:09;5.63;;;2.87;;
70459;SDS011;57920;54.796;9.430;2022-07-15T13:17:35;4.60;;;2.93;;
70459;SDS011;57920;54.796;9.430;2022-07-15T13:20:01;5.03;;;2.60;;
70459;SDS011;57920;54.796;9.430;2022-07-15T13:22:30;5.03;;;3.10;;
70459;SDS011;57920;54.796;9.430;2022-07-15T13:24:56;4.23;;;2.30;;
70459;SDS011;57920;54.796;9.430;2022-07-15T13:27:21;3.53;;;2.20;;
70459;SDS011;57920;54.796;9.430;2022-07-15T13:29:47;5.83;;;2.20;;
70459;SDS011;57920;54.796;9.430;2022-07-15T13:32:12;2.27;;;1.57;;
70459;SDS011;57920;54.796;9.430;2022-07-15T13:34:38;6.20;;;1.83;;
70459;SDS011;57920;54.796;9.430;2022-07-15T13:37:03;2.83;;;1.83;;
70459;SDS011;57920;54.796;9.430;2022-07-15T13:39:29;1.93;;;1.60;;
70459;SDS011;57920;54.796;9.430;2022-07-15T13:41:55;2.80;;;1.70;;
70459;SDS011;57920;54.796;9.430;2022-07-15T13:44:20;2.37;;;1.30;;
70459;SDS011;57920;54.796;9.430;2022-07-15T13:46:46;4.10;;;1.60;;
70459;SDS011;57920;54.796;9.430;2022-07-15T13:49:11;2.77;;;1.40;;
70459;SDS011;57920;54.796;9.430;2022-07-15T13:51:37;1.17;;;1.07;;
70459;SDS011;57920;54.796;9.430;2022-07-15T13:54:06;2.37;;;1.27;;
70459;SDS011;57920;54.796;9.430;2022-07-15T13:56:33;3.60;;;1.20;;
70459;SDS011;57920;54.796;9.430;2022-07-15T13:59:00;2.07;;;0.77;;
70459;SDS011;57920;54.796;9.430;2022-07-15T14:01:27;2.40;;;1.20;;
70459;SDS011;57920;54.796;9.430;2022-07-15T14:03:56;1.57;;;1.00;;
70459;SDS011;57920;54.796;9.430;2022-07-15T14:06:22;2.17;;;0.97;;
70459;SDS011;57920;54.796;9.430;2022-07-15T14:08:48;1.40;;;1.07;;
70459;SDS011;57920;54.796;9.430;2022-07-15T14:11:14;1.70;;;1.13;;
70459;SDS011;57920;54.796;9.430;2022-07-15T14:13:39;1.63;;;0.97;;
70459;SDS011;57920;54.796;9.430;2022-07-15T14:16:05;2.87;;;0.90;;
70459;SDS011;57920;54.796;9.430;2022-07-15T14:18:31;0.93;;;0.67;;
70459;SDS011;57920;54.796;9.430;2022-07-15T14:21:16;1.63;;;0.83;;
70459;SDS011;57920;54.796;9.430;2022-07-15T14:23:43;1.73;;;0.70;;
70459;SDS011;57920;54.796;9.430;2022-07-15T14:26:09;1.73;;;0.80;;
70459;SDS011;57920;54.796;9.430;2022-07-15T14:28:36;3.00;;;0.97;;
70459;SDS011;57920;54.796;9.430;2022-07-15T14:31:02;1.50;;;0.70;;
70459;SDS011;57920;54.796;9.430;2022-07-15T14:33:30;1.17;;;0.60;;
70459;SDS011;57920;54.796;9.430;2022-07-15T14:35:55;1.13;;;0.60;;
70459;SDS011;57920;54.796;9.430;2022-07-15T14:38:21;3.23;;;1.03;;
70459;SDS011;57920;54.796;9.430;2022-07-15T14:40:46;3.00;;;0.90;;
70459;SDS011;57920;54.796;9.430;2022-07-15T14:43:12;2.27;;;1.00;;
70459;SDS011;57920;54.796;9.430;2022-07-15T14:45:38;2.40;;;0.83;;
70459;SDS011;57920;54.796;9.430;2022-07-15T14:48:03;2.57;;;1.00;;
70459;SDS011;57920;54.796;9.430;2022-07-15T14:50:29;2.07;;;0.70;;
70459;SDS011;57920;54.796;9.430;2022-07-15T14:52:57;1.60;;;0.80;;
70459;SDS011;57920;54.796;9.430;2022-07-15T14:55:23;1.97;;;0.90;;
70459;SDS011;57920;54.796;9.430;2022-07-15T14:57:49;1.17;;;0.70;;
70459;SDS011;57920;54.796;9.430;2022-07-15T15:00:15;1.17;;;0.90;;
70459;SDS011;57920;54.796;9.430;2022-07-15T15:02:40;1.00;;;0.50;;
70459;SDS011;57920;54.796;9.430;2022-07-15T15:05:06;1.07;;;0.50;;
70459;SDS011;57920;54.796;9.430;2022-07-15T15:07:32;1.13;;;0.50;;
70459;SDS011;57920;54.796;9.430;2022-07-15T15:09:57;1.30;;;0.70;;
70459;SDS011;57920;54.796;9.430;2022-07-15T15:12:23;2.43;;;0.83;;
70459;SDS011;57920;54.796;9.430;2022-07-15T15:14:48;1.03;;;0.60;;
70459;SDS011;57920;54.796;9.430;2022-07-15T15:17:17;1.67;;;0.70;;
70459;SDS011;57920;54.796;9.430;2022-07-15T15:19:43;3.27;;;0.67;;
70459;SDS011;57920;54.796;9.430;2022-07-15T15:22:08;2.90;;;0.60;;
70459;SDS011;57920;54.796;9.430;2022-07-15T15:24:34;1.10;;;0.60;;
70459;SDS011;57920;54.796;9.430;2022-07-15T15:27:00;1.13;;;0.80;;
70459;SDS011;57920;54.796;9.430;2022-07-15T15:29:27;1.47;;;0.63;;
70459;SDS011;57920;54.796;9.430;2022-07-15T15:31:53;0.93;;;0.60;;
70459;SDS011;57920;54.796;9.430;2022-07-15T15:34:19;1.07;;;0.73;;
70459;SDS011;57920;54.796;9.430;2022-07-15T15:36:44;1.67;;;0.80;;
70459;SDS011;57920;54.796;9.430;2022-07-15T15:39:10;0.87;;;0.60;;
70459;SDS011;57920;54.796;9.430;2022-07-15T15:41:36;0.80;;;0.60;;
70459;SDS011;57920;54.796;9.430;2022-07-15T15:44:02;0.70;;;0.60;;
70459;SDS011;57920;54.796;9.430;2022-07-15T15:46:33;1.07;;;0.43;;
70459;SDS011;57920;54.796;9.430;2022-07-15T15:48:58;0.73;;;0.50;;
70459;SDS011;57920;54.796;9.430;2022-07-15T15:51:25;0.97;;;0.40;;
70459;SDS011;57920;54.796;9.430;2022-07-15T15:53:50;0.97;;;0.57;;
70459;SDS011;57920;54.796;9.430;2022-07-15T15:56:16;1.00;;;0.40;;
70459;SDS011;57920;54.796;9.430;2022-07-15T15:58:41;1.07;;;0.40;;
70459;SDS011;57920;54.796;9.430;2022-07-15T16:01:07;2.33;;;0.50;;
70459;SDS011;57920;54.796;9.430;2022-07-15T16:03:33;0.80;;;0.40;;